METAR AND TAF INFORMATION
METAR FOR UTDK
ADDS - METARS form results

(0615 UTC 27 November 2021)
Data provider http://aviationweather.gov/metar/data/
 
METAR text: UTDK 270600Z VRB01MPS 9999 OVC023 10/06 Q1025 R01/09//70 RMK QFE711/0948
Conditions at: UTDK (KOLUB , TJ) observed 0600 UTC 27 November 2021
Temperature: 10.0°C (50°F)
Dewpoint: 6.0°C (43°F) [RH = 76%]
Pressure (altimeter): 30.27 inches Hg (1025.0 mb)
Winds: variable direction winds at 2 MPH (2 knots; 1.0 m/s)
Visibility: 6 or more miles (10+ km)
Ceiling: 2300 feet AGL
Clouds: overcast cloud deck at 2300 feet AGL
Weather: no significant weather observed at this time

METAR text: UTDK 270530Z VRB01MPS 9000 BKN022 OVC043 10/06 Q1025 R01/09//70 RMK QFE711/0948
Conditions at: UTDK (KOLUB , TJ) observed 0530 UTC 27 November 2021
Temperature: 10.0°C (50°F)
Dewpoint: 6.0°C (43°F) [RH = 76%]
Pressure (altimeter): 30.27 inches Hg (1025.0 mb)
Winds: variable direction winds at 2 MPH (2 knots; 1.0 m/s)
Visibility: 6 miles ( 9 km)
Ceiling: 2200 feet AGL
Clouds: broken clouds at 2200 feet AGL
overcast cloud deck at 4300 feet AGL
Weather: no significant weather observed at this time

Forecast for: UTDK (KOLUB , TJ)
Text: TAF UTDK 270600Z 2707/2716 VRB02MPS 6000 SCT020 BKN060
Forecast period: 0700 to 1600 UTC 27 November 2021
Forecast type: FROM: standard forecast or significant change
Winds: variable direction winds at 5 MPH (4 knots; 2.1 m/s)
Visibility: 4 miles (6 km)
Ceiling: 6000 feet AGL
Clouds: scattered clouds at 2000 feet AGL
broken clouds at 6000 feet AGL
Weather: no significant weather forecast for this period

 AIRPORT MAP

 RUNWAY INFORMATION
Runway 01 Runway length 9843 ft Runway width 137 ft
Runway elevation 2149 ft Runway displaced threshold 0 ft Runway heading 17
Runway 19 Runway length 9843 ft Runway width 137 ft
Runway elevation 2293 ft Runway displaced threshold 0 ft Runway heading 197

 AIRPORT FREQUENCIES
Type TWR Name TWR Frequency 118.5 MHZ

 AIRPORT NEAR NAVIGATION AIDS
Type NDB Name Kulyab Frequency 298 KHZ





Powered by Virtual Airlines Manager

Maps by Rafael Santos